Pereiras, Brazil
Current Conditions -  °F | °C
As of 12:00 AM on Monday 26 Jan 2015 (Local Time) from SBKP Reporting Station
Thunderstorm Thunderstorm  
Wind Chill: 77°   Ceiling: Unl
Heat Index: 79°   Visibility: 6mi
Dew Point: 64°   Wind: 10mph
Humidity: 65%   Direction: 360°N
Pressure: 30"   Gusts: NA
Location:  23.08°S, 47.98°W
Report Text: SBKP 260200Z 36009KT 9999 TS FEW030 SCT040CB 25/18 Q1016
Loading
Personal Weather Stations






























Interactive Weather Map New forecast layout! Learn more

10-Day Weather Forecast

Advertisements
Track Severe Weather on mobile